Time;durP1;ratioP1;P1;durP2;ratioP2;P2;SDS_P1;SDS_P2;PMS_P1;PMS_P2;Temp;Humidity;BMP_temperature;BMP_pressure;BME280_temperature;BME280_humidity;BME280_pressure;Samples;Min_cycle;Max_cycle;Signal;HPM_P1;HPM_P2
2023/08/08 00:01:44;;;;;;;4.43;2.08;;;;;;;21.11;63.93;101514.94;5012390;28;20034;-50
2023/08/08 00:04:10;;;;;;;5.00;2.00;;;;;;;21.16;62.40;101514.91;5009426;28;20072;-45
2023/08/08 00:06:36;;;;;;;8.63;2.28;;;;;;;21.04;62.18;101513.34;5010037;28;20041;-46
2023/08/08 00:09:03;;;;;;;8.05;2.30;;;;;;;21.11;61.60;101517.59;5009762;28;20073;-49
2023/08/08 00:11:29;;;;;;;6.63;2.00;;;;;;;21.22;61.76;101517.44;5009381;28;20048;-44
2023/08/08 00:13:54;;;;;;;8.77;1.92;;;;;;;21.10;61.08;101525.59;5009384;28;20038;-45
2023/08/08 00:16:19;;;;;;;6.88;2.00;;;;;;;21.16;61.12;101526.38;5009178;28;20042;-45
2023/08/08 00:18:45;;;;;;;6.35;2.10;;;;;;;21.16;61.10;101528.16;5024756;28;20034;-45
2023/08/08 00:21:10;;;;;;;8.45;1.90;;;;;;;21.01;60.17;101526.63;5009217;28;20034;-44
2023/08/08 00:23:35;;;;;;;5.57;1.92;;;;;;;21.22;59.45;101520.09;5009535;28;20045;-45
2023/08/08 00:26:01;;;;;;;5.78;1.90;;;;;;;20.86;59.26;101519.84;5009860;28;20385;-45
2023/08/08 00:28:26;;;;;;;6.55;1.98;;;;;;;20.93;58.85;101524.13;5009819;28;20042;-48
2023/08/08 00:30:51;;;;;;;5.63;2.00;;;;;;;21.01;58.24;101522.22;5014006;28;20641;-45
2023/08/08 00:33:17;;;;;;;3.88;2.05;;;;;;;20.91;57.90;101528.59;5012727;28;20030;-44
2023/08/08 00:35:43;;;;;;;4.07;1.90;;;;;;;20.90;58.05;101515.38;5013856;28;20046;-47
2023/08/08 00:38:09;;;;;;;5.47;2.20;;;;;;;21.09;58.06;101523.84;5013546;28;20038;-46
2023/08/08 00:40:34;;;;;;;5.38;2.10;;;;;;;21.17;57.28;101517.50;5013521;28;20525;-45
2023/08/08 00:42:59;;;;;;;4.28;1.98;;;;;;;21.05;57.58;101521.25;5013162;28;20057;-44
2023/08/08 00:45:25;;;;;;;8.35;2.20;;;;;;;21.06;58.11;101524.78;5012814;28;20092;-46
2023/08/08 00:47:50;;;;;;;4.80;2.05;;;;;;;20.92;58.78;101509.13;5013530;28;20444;-44
2023/08/08 00:50:17;;;;;;;4.50;2.00;;;;;;;21.02;58.43;101513.38;5012821;28;20125;-44
2023/08/08 00:52:44;;;;;;;4.35;2.00;;;;;;;20.93;58.67;101512.66;5012955;28;20069;-46
2023/08/08 00:55:09;;;;;;;4.22;1.90;;;;;;;20.64;59.53;101515.84;5012605;28;20528;-44
2023/08/08 00:57:38;;;;;;;4.68;2.08;;;;;;;20.67;59.36;101516.66;5013397;28;20034;-46
2023/08/08 01:00:05;;;;;;;4.90;2.08;;;;;;;20.51;58.93;101501.94;5013659;28;20562;-45
2023/08/08 01:02:31;;;;;;;6.82;2.10;;;;;;;20.42;58.96;101510.06;5015292;28;20456;-45
2023/08/08 01:04:56;;;;;;;6.85;1.85;;;;;;;20.41;57.59;101507.44;5014232;28;20030;-46
2023/08/08 01:08:04;;;;;;;7.90;2.00;;;;;;;20.42;56.35;101509.19;5013316;28;20493;-44
2023/08/08 01:10:33;;;;;;;4.03;1.85;;;;;;;20.50;55.78;101507.25;5013040;28;20108;-46
2023/08/08 01:13:05;;;;;;;5.35;1.90;;;;;;;20.53;55.76;101518.69;5012450;28;20040;-47
2023/08/08 01:15:35;;;;;;;4.05;1.90;;;;;;;20.61;54.37;101513.25;5012616;28;20049;-44
2023/08/08 01:18:03;;;;;;;5.10;2.00;;;;;;;20.70;54.46;101507.78;5012978;28;20126;-44
2023/08/08 01:20:29;;;;;;;6.88;1.90;;;;;;;20.56;54.69;101510.66;5012489;28;20038;-49
2023/08/08 01:23:17;;;;;;;4.03;1.83;;;;;;;20.63;55.04;101516.75;5012298;28;20057;-47
2023/08/08 01:25:43;;;;;;;4.63;2.00;;;;;;;20.73;54.80;101506.88;5013024;28;20053;-44
2023/08/08 01:28:09;;;;;;;4.22;2.03;;;;;;;20.77;54.21;101509.44;5013188;28;20041;-44
2023/08/08 01:30:34;;;;;;;3.88;2.13;;;;;;;20.56;54.61;101509.78;5013497;28;20037;-45
2023/08/08 01:33:00;;;;;;;3.47;1.90;;;;;;;20.66;54.42;101511.41;5012251;28;20504;-45
2023/08/08 01:35:28;;;;;;;4.65;1.90;;;;;;;20.64;54.60;101505.25;5012195;28;20062;-47
2023/08/08 01:38:01;;;;;;;7.60;2.20;;;;;;;20.56;54.77;101493.91;5012378;28;20504;-45
2023/08/08 01:40:29;;;;;;;4.97;1.92;;;;;;;20.39;55.23;101501.28;5011472;28;20037;-46
2023/08/08 01:42:56;;;;;;;6.93;2.00;;;;;;;20.27;56.04;101505.84;5011851;28;20492;-47
2023/08/08 01:45:21;;;;;;;6.00;2.00;;;;;;;20.51;55.96;101506.34;5011627;28;20501;-43
2023/08/08 01:47:50;;;;;;;5.93;1.77;;;;;;;20.73;55.44;101504.22;5012395;28;20083;-43
2023/08/08 01:50:16;;;;;;;7.25;2.00;;;;;;;20.70;55.35;101498.97;5011690;28;20046;-46
2023/08/08 01:52:41;;;;;;;4.82;2.05;;;;;;;20.53;56.23;101502.78;5011949;28;20488;-45
2023/08/08 01:55:07;;;;;;;2.95;1.70;;;;;;;20.46;56.58;101490.56;5011826;28;20527;-46
2023/08/08 01:57:32;;;;;;;4.40;2.08;;;;;;;20.60;56.47;101491.19;5012832;28;20045;-46
2023/08/08 01:59:58;;;;;;;6.97;2.20;;;;;;;20.71;56.24;101492.75;5012994;28;20041;-45
2023/08/08 02:02:23;;;;;;;5.75;1.92;;;;;;;20.80;56.57;101490.81;5012136;28;20492;-46
2023/08/08 02:04:48;;;;;;;7.13;2.00;;;;;;;20.65;57.33;101494.63;5012344;28;20570;-46
2023/08/08 02:07:14;;;;;;;7.75;2.00;;;;;;;20.58;57.27;101494.75;5011393;28;20037;-46
2023/08/08 02:09:39;;;;;;;6.65;2.15;;;;;;;20.56;56.93;101481.53;5011890;28;20045;-45
2023/08/08 02:12:05;;;;;;;5.43;2.00;;;;;;;20.64;56.90;101476.97;5011085;28;20574;-48
2023/08/08 02:14:30;;;;;;;5.30;2.10;;;;;;;20.47;57.33;101475.53;5011126;28;20037;-46
2023/08/08 02:16:55;;;;;;;6.32;2.10;;;;;;;20.50;57.26;101472.81;5011650;28;20040;-46
2023/08/08 02:19:21;;;;;;;5.40;2.05;;;;;;;20.47;57.35;101471.13;5011158;28;20058;-46
2023/08/08 02:21:46;;;;;;;6.28;1.90;;;;;;;20.42;57.69;101478.28;5011818;28;20084;-47
2023/08/08 02:24:11;;;;;;;5.97;2.10;;;;;;;20.38;57.68;101478.34;5010207;28;20040;-49
2023/08/08 02:26:37;;;;;;;7.30;1.90;;;;;;;20.37;57.56;101479.25;5011445;28;20539;-44
2023/08/08 02:29:02;;;;;;;6.75;1.90;;;;;;;20.38;57.64;101487.16;5011260;28;20045;-44
2023/08/08 02:31:27;;;;;;;8.25;2.03;;;;;;;20.45;57.11;101480.84;5011199;28;20404;-43
2023/08/08 02:33:54;;;;;;;5.30;1.65;;;;;;;20.56;57.28;101478.00;5011062;28;20084;-44
2023/08/08 02:36:20;;;;;;;8.73;1.90;;;;;;;20.56;56.69;101480.66;5010923;28;20061;-44
2023/08/08 02:38:45;;;;;;;5.63;2.10;;;;;;;20.60;56.71;101477.94;5011511;28;20038;-47
2023/08/08 02:41:10;;;;;;;10.60;2.05;;;;;;;20.61;56.54;101470.88;5010798;28;20030;-48
2023/08/08 02:43:36;;;;;;;10.75;2.08;;;;;;;20.53;57.25;101468.34;5010384;28;20034;-46
2023/08/08 02:46:01;;;;;;;5.75;1.65;;;;;;;20.42;56.96;101457.09;5011194;28;20088;-46
2023/08/08 02:48:28;;;;;;;5.97;1.80;;;;;;;20.17;57.03;101463.66;5011065;28;20041;-44
2023/08/08 02:50:54;;;;;;;6.35;1.80;;;;;;;20.30;56.91;101469.63;5010024;28;20068;-44
2023/08/08 02:53:19;;;;;;;6.53;1.90;;;;;;;19.99;57.33;101469.25;5011319;28;20061;-45
2023/08/08 02:55:44;;;;;;;6.30;1.73;;;;;;;20.19;56.68;101467.16;5012242;28;20511;-46
2023/08/08 02:58:10;;;;;;;6.82;1.92;;;;;;;20.11;57.25;101469.06;5010981;28;20511;-48
2023/08/08 03:00:35;;;;;;;6.18;1.90;;;;;;;20.22;57.02;101465.34;5012806;28;20392;-46
2023/08/08 03:03:00;;;;;;;8.55;1.90;;;;;;;20.27;56.93;101459.97;5012915;28;20038;-48
2023/08/08 03:05:26;;;;;;;6.22;1.70;;;;;;;20.02;58.33;101461.25;5011288;28;20042;-47
2023/08/08 03:07:51;;;;;;;5.18;1.80;;;;;;;20.09;58.12;101457.63;5011140;28;20035;-43
2023/08/08 03:10:17;;;;;;;6.35;1.67;;;;;;;20.14;57.91;101459.28;5010724;28;20061;-42
2023/08/08 03:12:42;;;;;;;3.80;1.63;;;;;;;20.03;58.35;101463.88;5010122;28;20042;-48
2023/08/08 03:15:08;;;;;;;6.10;1.70;;;;;;;20.02;58.43;101456.84;5010042;28;20060;-47
2023/08/08 03:17:34;;;;;;;6.32;1.55;;;;;;;20.09;58.52;101463.78;5010458;28;20042;-46
2023/08/08 03:20:00;;;;;;;5.88;1.67;;;;;;;20.37;57.24;101458.91;5010527;28;20034;-44
2023/08/08 03:22:25;;;;;;;4.18;1.50;;;;;;;20.09;57.97;101470.84;5009637;28;20034;-46
2023/08/08 03:24:51;;;;;;;4.93;1.60;;;;;;;20.12;57.89;101461.09;5010322;28;20412;-49
2023/08/08 03:27:16;;;;;;;6.32;1.70;;;;;;;20.10;58.04;101460.25;5009755;28;20520;-44
2023/08/08 03:29:41;;;;;;;3.22;1.40;;;;;;;20.39;57.26;101450.97;5010633;28;20038;-44
2023/08/08 03:32:07;;;;;;;5.47;1.67;;;;;;;20.23;58.07;101461.78;5010076;28;20030;-48
2023/08/08 03:34:32;;;;;;;6.80;1.50;;;;;;;20.20;57.83;101453.00;5009801;28;20089;-45
2023/08/08 03:36:58;;;;;;;5.63;1.60;;;;;;;19.96;59.15;101453.41;5010473;28;20038;-45
2023/08/08 03:39:24;;;;;;;8.38;1.80;;;;;;;19.73;58.84;101445.84;5009856;28;20048;-46
2023/08/08 03:41:49;;;;;;;6.57;1.50;;;;;;;19.69;54.89;101439.75;5011010;28;20125;-47
2023/08/08 03:44:14;;;;;;;4.35;1.33;;;;;;;19.64;55.14;101435.41;5010004;28;20058;-44
2023/08/08 03:46:40;;;;;;;4.75;1.40;;;;;;;19.47;53.30;101440.06;5011946;28;20030;-44
2023/08/08 03:49:05;;;;;;;5.32;1.38;;;;;;;19.55;51.54;101427.59;5011460;28;20515;-45
2023/08/08 03:51:30;;;;;;;3.10;1.20;;;;;;;19.56;51.39;101430.25;5012177;28;20100;-44
2023/08/08 03:53:56;;;;;;;2.97;1.13;;;;;;;19.68;50.66;101434.47;5011322;28;20092;-47
2023/08/08 03:56:21;;;;;;;2.72;1.30;;;;;;;19.70;51.10;101432.69;5011267;28;20050;-43
2023/08/08 03:58:47;;;;;;;4.00;1.20;;;;;;;19.82;50.73;101429.84;5011017;28;20441;-44
2023/08/08 04:01:12;;;;;;;2.88;1.20;;;;;;;19.97;51.11;101432.22;5009812;28;20042;-44
2023/08/08 04:03:37;;;;;;;5.57;1.60;;;;;;;19.94;51.41;101432.28;5009345;28;20043;-45
2023/08/08 04:06:03;;;;;;;3.08;1.30;;;;;;;19.91;51.90;101431.44;5009765;28;20042;-45
2023/08/08 04:08:28;;;;;;;5.38;1.42;;;;;;;19.30;54.31;101432.31;5009501;28;20042;-49
2023/08/08 04:10:54;;;;;;;4.95;1.60;;;;;;;19.44;54.65;101436.53;5009822;28;20037;-45
2023/08/08 04:13:19;;;;;;;5.13;1.40;;;;;;;19.58;54.28;101435.50;5008770;28;20034;-46
2023/08/08 04:15:45;;;;;;;6.35;1.58;;;;;;;19.59;54.56;101432.81;5009852;28;20049;-49
2023/08/08 04:18:10;;;;;;;6.35;1.40;;;;;;;19.64;54.64;101428.34;5010535;28;20040;-44
2023/08/08 04:20:36;;;;;;;9.48;1.58;;;;;;;19.51;54.91;101433.84;5010314;28;20041;-44
2023/08/08 04:23:01;;;;;;;2.65;1.50;;;;;;;19.57;54.65;101429.34;5009479;28;20116;-48
2023/08/08 04:25:27;;;;;;;3.88;1.40;;;;;;;19.49;54.52;101431.22;5009272;28;20049;-48
2023/08/08 04:27:53;;;;;;;4.22;1.48;;;;;;;19.42;54.88;101437.44;5009715;28;20386;-45
2023/08/08 04:30:18;;;;;;;4.45;1.38;;;;;;;19.45;55.70;101440.06;5008815;28;20061;-46
2023/08/08 04:32:43;;;;;;;6.68;1.30;;;;;;;19.30;55.23;101429.69;5009135;28;20034;-50
2023/08/08 04:35:09;;;;;;;4.50;1.50;;;;;;;19.25;55.71;101436.81;5008917;28;20125;-44
2023/08/08 04:37:34;;;;;;;2.80;1.30;;;;;;;19.33;55.16;101438.44;5009694;28;20410;-45
2023/08/08 04:40:00;;;;;;;5.35;1.27;;;;;;;19.29;55.40;101436.75;5009581;28;20432;-47
2023/08/08 04:42:25;;;;;;;4.35;1.73;;;;;;;19.40;55.60;101441.88;5008581;28;20488;-45
2023/08/08 04:44:50;;;;;;;5.88;1.73;;;;;;;19.33;56.52;101441.09;5009590;28;20488;-49
2023/08/08 04:47:16;;;;;;;5.95;1.40;;;;;;;19.29;56.71;101447.31;5009360;28;20416;-46
2023/08/08 04:49:41;;;;;;;5.18;1.52;;;;;;;19.50;56.59;101447.97;5009574;28;20507;-50
2023/08/08 04:52:06;;;;;;;4.82;1.50;;;;;;;19.53;56.13;101447.91;5009598;28;20484;-46
2023/08/08 04:54:32;;;;;;;4.95;1.60;;;;;;;19.72;55.93;101446.75;5021052;28;20471;-46
2023/08/08 04:56:57;;;;;;;6.78;1.50;;;;;;;19.88;55.81;101436.81;5023985;28;20038;-52
2023/08/08 04:59:23;;;;;;;7.38;1.45;;;;;;;19.77;55.88;101450.19;5016463;28;20100;-44
2023/08/08 05:01:48;;;;;;;4.38;1.27;;;;;;;19.59;56.46;101448.69;5009466;28;20045;-45
2023/08/08 05:04:14;;;;;;;3.60;1.38;;;;;;;19.43;56.32;101448.00;5008676;28;20041;-47
2023/08/08 05:06:39;;;;;;;4.20;1.50;;;;;;;19.52;56.24;101454.97;5007986;28;20574;-45
2023/08/08 05:09:04;;;;;;;5.28;1.30;;;;;;;19.67;56.04;101449.47;5008927;28;20038;-44
2023/08/08 05:11:29;;;;;;;2.67;1.23;;;;;;;19.55;55.70;101452.28;5009148;28;20507;-50
2023/08/08 05:13:55;;;;;;;9.18;1.50;;;;;;;19.66;55.69;101449.47;5008843;28;20507;-45
2023/08/08 05:16:20;;;;;;;3.38;1.10;;;;;;;19.56;54.91;101446.09;5012021;28;20030;-47
2023/08/08 05:18:45;;;;;;;4.18;1.45;;;;;;;19.76;54.73;101446.66;5012927;28;20034;-45
2023/08/08 05:21:11;;;;;;;4.43;1.70;;;;;;;20.01;54.17;101451.56;5012139;28;20121;-45
2023/08/08 05:23:37;;;;;;;4.85;1.10;;;;;;;19.97;53.85;101453.41;5012445;28;20064;-47
2023/08/08 05:26:03;;;;;;;4.15;1.10;;;;;;;19.68;52.99;101450.34;5013417;28;20040;-50
2023/08/08 05:28:28;;;;;;;3.25;1.00;;;;;;;19.70;52.74;101453.84;5012532;28;20042;-47
2023/08/08 05:30:54;;;;;;;3.75;1.00;;;;;;;19.64;52.48;101456.59;5012979;28;20488;-44
2023/08/08 05:33:19;;;;;;;3.00;0.95;;;;;;;19.81;51.96;101446.63;5011617;28;20492;-45
2023/08/08 05:35:45;;;;;;;2.08;1.20;;;;;;;19.58;52.45;101448.75;5012396;28;20033;-50
2023/08/08 05:38:10;;;;;;;5.15;1.15;;;;;;;19.84;52.72;101451.84;5012187;28;20171;-47
2023/08/08 05:40:36;;;;;;;4.57;1.10;;;;;;;20.01;51.39;101452.44;5011977;28;20045;-49
2023/08/08 05:43:02;;;;;;;5.70;1.00;;;;;;;19.99;52.98;101456.91;5011807;28;20492;-47
2023/08/08 05:45:28;;;;;;;4.63;0.90;;;;;;;20.12;51.85;101452.28;5011642;28;20037;-51
2023/08/08 05:47:54;;;;;;;3.45;1.10;;;;;;;20.28;51.84;101453.75;5012437;28;20034;-48
2023/08/08 05:50:20;;;;;;;2.58;0.90;;;;;;;20.06;52.48;101453.28;5011552;28;20038;-50
2023/08/08 05:52:45;;;;;;;3.97;1.00;;;;;;;20.38;52.63;101451.84;5011528;28;20081;-47
2023/08/08 05:55:10;;;;;;;4.20;0.90;;;;;;;20.55;51.43;101457.75;5011351;28;20062;-48
2023/08/08 05:57:37;;;;;;;6.70;1.00;;;;;;;21.41;48.34;101461.28;5012048;28;20463;-49
2023/08/08 06:00:03;;;;;;;4.07;1.13;;;;;;;21.83;47.42;101461.25;5011813;28;20048;-46
2023/08/08 06:02:28;;;;;;;4.18;0.80;;;;;;;22.24;45.14;101454.94;5011187;28;20057;-48
2023/08/08 06:04:54;;;;;;;4.55;0.70;;;;;;;22.06;45.19;101458.06;5011906;28;20069;-49
2023/08/08 06:07:19;;;;;;;5.82;0.90;;;;;;;21.93;45.80;101464.53;5011495;28;20057;-46
2023/08/08 06:09:44;;;;;;;2.13;0.80;;;;;;;22.52;44.38;101455.06;5011671;28;20037;-46
2023/08/08 06:12:10;;;;;;;3.63;0.82;;;;;;;22.41;45.32;101458.03;5011421;28;20108;-46
2023/08/08 06:14:35;;;;;;;3.22;0.95;;;;;;;23.76;42.99;101462.13;5011322;28;20034;-45
2023/08/08 06:17:01;;;;;;;4.18;0.95;;;;;;;23.51;42.85;101457.59;5011734;28;20034;-48
2023/08/08 06:19:26;;;;;;;5.13;0.90;;;;;;;23.15;44.01;101456.91;5011099;28;20033;-45
2023/08/08 06:21:51;;;;;;;4.20;0.90;;;;;;;23.38;44.55;101467.72;5011682;28;20037;-44
2023/08/08 06:24:17;;;;;;;3.03;1.00;;;;;;;24.05;41.32;101461.19;5010529;28;20116;-46
2023/08/08 06:26:42;;;;;;;4.45;0.77;;;;;;;24.42;40.94;101460.84;5010341;28;20412;-45
2023/08/08 06:29:07;;;;;;;5.65;0.75;;;;;;;23.81;41.89;101451.31;5010771;28;20045;-50
2023/08/08 06:31:33;;;;;;;4.63;0.80;;;;;;;23.96;42.11;101468.59;5011475;28;20049;-44
2023/08/08 06:33:58;;;;;;;2.67;0.90;;;;;;;24.21;41.32;101464.25;5010773;28;20551;-47
2023/08/08 06:36:23;;;;;;;4.00;1.15;;;;;;;24.44;40.43;101460.78;5010845;28;20104;-49
2023/08/08 06:38:49;;;;;;;4.65;0.95;;;;;;;24.20;41.65;101463.38;5011205;28;20033;-46
2023/08/08 06:41:14;;;;;;;5.90;1.05;;;;;;;24.11;41.19;101460.97;5010607;28;20041;-47
2023/08/08 06:43:39;;;;;;;4.20;1.00;;;;;;;24.32;41.22;101474.53;5010481;28;20041;-49
2023/08/08 06:46:05;;;;;;;2.78;0.82;;;;;;;23.55;42.11;101468.09;5010819;28;20044;-45
2023/08/08 06:48:30;;;;;;;3.00;0.98;;;;;;;22.41;43.49;101463.34;5012134;28;20041;-51
2023/08/08 06:50:55;;;;;;;4.97;1.10;;;;;;;22.05;44.57;101469.59;5012941;28;20038;-45
2023/08/08 06:53:21;;;;;;;1.70;0.70;;;;;;;22.02;46.26;101461.69;5010803;28;20042;-44
2023/08/08 06:55:46;;;;;;;3.67;0.90;;;;;;;23.34;43.74;101451.00;5010084;28;20069;-45
2023/08/08 06:58:11;;;;;;;4.25;0.80;;;;;;;23.14;42.98;101453.38;5010849;28;20045;-45
2023/08/08 07:00:37;;;;;;;3.58;0.85;;;;;;;24.29;40.99;101454.19;5010594;28;20412;-50
2023/08/08 07:03:02;;;;;;;3.90;0.93;;;;;;;23.70;41.82;101450.81;5011241;28;20111;-45
2023/08/08 07:05:29;;;;;;;4.05;0.80;;;;;;;23.42;42.44;101458.75;5010029;28;20029;-46
2023/08/08 07:07:54;;;;;;;2.55;0.80;;;;;;;24.17;40.50;101455.44;5026392;28;20045;-47
2023/08/08 07:10:19;;;;;;;2.63;0.75;;;;;;;23.58;41.55;101461.84;5010225;28;20045;-47
2023/08/08 07:12:45;;;;;;;1.65;0.80;;;;;;;23.42;42.94;101466.72;5010044;28;20615;-47
2023/08/08 07:15:11;;;;;;;3.90;1.00;;;;;;;23.60;42.48;101466.19;5008331;28;20046;-48
2023/08/08 07:17:37;;;;;;;1.40;0.77;;;;;;;22.69;44.05;101467.94;5010403;28;20034;-46
2023/08/08 07:20:03;;;;;;;4.18;1.00;;;;;;;22.59;45.81;101467.28;5010333;28;20048;-46
2023/08/08 07:22:28;;;;;;;3.60;0.80;;;;;;;22.36;46.45;101469.69;5009279;28;20030;-45
2023/08/08 07:24:53;;;;;;;4.07;1.00;;;;;;;22.28;47.40;101469.88;5010521;28;20045;-47
2023/08/08 07:27:19;;;;;;;3.00;0.95;;;;;;;21.84;47.70;101469.16;5009733;28;20036;-45
2023/08/08 07:29:44;;;;;;;2.63;0.98;;;;;;;21.57;47.56;101466.28;5010103;28;20087;-50
2023/08/08 07:32:10;;;;;;;1.80;0.68;;;;;;;22.23;46.95;101461.16;5009639;28;20415;-46
2023/08/08 07:34:35;;;;;;;5.00;1.00;;;;;;;21.97;47.69;101459.16;5009536;28;20042;-45
2023/08/08 07:37:00;;;;;;;4.03;1.00;;;;;;;22.25;48.07;101462.88;5009917;28;20096;-47
2023/08/08 07:39:26;;;;;;;3.58;0.90;;;;;;;22.50;47.18;101448.97;5009411;28;20041;-47
2023/08/08 07:41:52;;;;;;;2.70;0.80;;;;;;;22.12;46.49;101453.47;5010291;28;20042;-43
2023/08/08 07:44:17;;;;;;;3.42;0.90;;;;;;;23.18;44.01;101452.34;5009159;28;20038;-47
2023/08/08 07:46:42;;;;;;;1.98;0.88;;;;;;;22.84;45.34;101446.25;5010565;28;20042;-45
2023/08/08 07:49:09;;;;;;;3.60;0.90;;;;;;;22.91;44.43;101450.50;5010979;28;20072;-45
2023/08/08 07:51:35;;;;;;;3.83;0.80;;;;;;;23.56;42.99;101456.53;5010113;28;20404;-51
2023/08/08 07:54:00;;;;;;;3.40;0.90;;;;;;;24.85;39.86;101444.19;5026875;28;20033;-44
2023/08/08 07:56:25;;;;;;;1.92;0.90;;;;;;;24.81;40.49;101450.56;5013668;28;20034;-47
2023/08/08 07:58:51;;;;;;;3.53;0.77;;;;;;;25.22;38.88;101449.06;5009416;28;20513;-47
2023/08/08 08:01:17;;;;;;;3.03;0.95;;;;;;;25.48;39.30;101450.72;5009511;28;20412;-45
2023/08/08 08:03:43;;;;;;;7.65;1.05;;;;;;;24.30;40.61;101455.94;5021623;28;20033;-46
2023/08/08 08:06:08;;;;;;;3.17;0.90;;;;;;;23.45;43.25;101450.66;5025791;28;20113;-46
2023/08/08 08:08:33;;;;;;;3.50;0.90;;;;;;;23.90;41.54;101455.50;5009383;28;20038;-44
2023/08/08 08:10:59;;;;;;;1.90;0.95;;;;;;;24.39;41.44;101452.97;5022401;28;20578;-47
2023/08/08 08:13:24;;;;;;;3.15;0.82;;;;;;;23.71;42.41;101445.44;5008803;28;20061;-49
2023/08/08 08:15:49;;;;;;;4.78;1.10;;;;;;;23.25;44.00;101453.03;5029081;28;20038;-45
2023/08/08 08:18:16;;;;;;;4.20;1.10;;;;;;;23.33;43.16;101459.00;5011781;28;20069;-44
2023/08/08 08:20:44;;;;;;;1.95;1.00;;;;;;;23.11;44.56;101450.81;5008993;28;20125;-44
2023/08/08 08:23:09;;;;;;;3.75;1.23;;;;;;;22.81;46.32;101446.38;5008534;28;20473;-45
2023/08/08 08:25:35;;;;;;;2.60;1.10;;;;;;;22.16;47.74;101459.56;5009433;28;20116;-47
2023/08/08 08:28:00;;;;;;;3.50;1.00;;;;;;;22.19;48.61;101459.50;5009380;28;20061;-50
2023/08/08 08:30:26;;;;;;;4.25;1.17;;;;;;;21.72;47.67;101447.31;5008676;28;20034;-45
2023/08/08 08:32:52;;;;;;;2.85;1.20;;;;;;;22.14;48.00;101464.91;5009186;28;20040;-51
2023/08/08 08:35:17;;;;;;;4.93;1.00;;;;;;;22.26;45.97;101453.97;5008910;28;20045;-51
2023/08/08 08:37:43;;;;;;;4.25;1.30;;;;;;;22.53;47.05;101454.16;5010871;28;20038;-44
2023/08/08 08:40:09;;;;;;;2.17;1.10;;;;;;;22.41;47.12;101458.03;5009940;28;20034;-45
2023/08/08 08:42:35;;;;;;;7.95;1.48;;;;;;;22.48;46.65;101456.09;5012031;28;20045;-46
2023/08/08 08:45:03;;;;;;;3.45;1.10;;;;;;;22.18;46.97;101458.63;5010726;28;20030;-45
2023/08/08 08:47:30;;;;;;;4.18;1.38;;;;;;;22.35;48.28;101465.28;5009679;28;20408;-45
2023/08/08 08:49:57;;;;;;;2.17;1.17;;;;;;;22.40;45.80;101468.69;5010695;28;20034;-47
2023/08/08 08:52:22;;;;;;;4.18;1.20;;;;;;;22.28;46.63;101461.91;5011869;28;20035;-46
2023/08/08 08:54:48;;;;;;;4.07;1.20;;;;;;;22.77;45.49;101461.50;5012985;28;20523;-48
2023/08/08 08:57:14;;;;;;;4.35;1.02;;;;;;;23.30;44.38;101459.97;5013157;28;20087;-49
2023/08/08 08:59:39;;;;;;;4.90;1.10;;;;;;;22.58;45.03;101470.88;5012726;28;20045;-47
2023/08/08 09:02:06;;;;;;;4.70;1.20;;;;;;;21.96;45.25;101475.97;5012580;28;20049;-44
2023/08/08 09:04:32;;;;;;;6.35;1.20;;;;;;;22.19;44.26;101473.66;5012715;28;20049;-48
2023/08/08 09:06:58;;;;;;;2.03;0.98;;;;;;;22.15;45.50;101466.66;5013260;28;20523;-44
2023/08/08 09:09:24;;;;;;;4.20;1.00;;;;;;;22.23;44.89;101479.75;5012061;28;20052;-47
2023/08/08 09:11:51;;;;;;;3.00;1.00;;;;;;;22.78;45.36;101470.38;5013678;28;20500;-44
2023/08/08 09:14:25;;;;;;;3.00;1.00;;;;;;;22.04;44.26;101483.78;5029640;28;20467;-48
2023/08/08 09:16:53;;;;;;;3.20;1.05;;;;;;;22.64;44.45;101465.38;5033980;28;20108;-44
2023/08/08 09:19:19;;;;;;;3.05;1.02;;;;;;;22.13;45.99;101484.44;5032787;28;20033;-46
2023/08/08 09:21:44;;;;;;;4.78;1.08;;;;;;;22.40;45.11;101481.97;5033720;28;20033;-45
2023/08/08 09:24:10;;;;;;;2.63;0.90;;;;;;;22.36;45.30;101482.97;5032391;28;20033;-45
2023/08/08 09:26:35;;;;;;;3.50;1.00;;;;;;;22.08;46.56;101483.66;5034560;28;20403;-45
2023/08/08 09:29:02;;;;;;;3.78;1.15;;;;;;;22.35;45.71;101481.22;5032148;28;20619;-48
2023/08/08 09:31:28;;;;;;;2.50;1.20;;;;;;;22.49;47.41;101481.75;5033068;28;20032;-47
2023/08/08 09:33:57;;;;;;;4.63;1.15;;;;;;;22.47;46.61;101472.94;5032819;28;20124;-50
2023/08/08 09:36:23;;;;;;;4.57;1.20;;;;;;;22.60;45.94;101480.56;5032001;28;20040;-46
2023/08/08 09:38:49;;;;;;;3.20;1.10;;;;;;;22.27;46.68;101489.38;5032128;28;20038;-48
2023/08/08 09:41:14;;;;;;;2.97;1.02;;;;;;;22.24;45.49;101487.69;5030611;28;20083;-48
2023/08/08 09:43:42;;;;;;;2.38;1.10;;;;;;;22.05;46.47;101489.06;5030996;28;20037;-49
2023/08/08 09:46:08;;;;;;;2.45;1.00;;;;;;;22.10;46.86;101488.94;5031682;28;20041;-44
2023/08/08 09:48:34;;;;;;;5.45;1.30;;;;;;;22.01;46.21;101490.03;5032214;28;20094;-46
2023/08/08 09:50:59;;;;;;;2.47;0.95;;;;;;;22.31;47.13;101484.88;5030122;28;20425;-47
2023/08/08 09:53:27;;;;;;;3.15;1.00;;;;;;;22.31;45.84;101488.41;5030945;28;20037;-50
2023/08/08 09:55:54;;;;;;;2.08;1.00;;;;;;;21.92;46.95;101478.72;5017979;28;20125;-46
2023/08/08 09:58:20;;;;;;;3.08;1.05;;;;;;;21.97;44.99;101482.16;5011714;28;20381;-42
2023/08/08 10:00:46;;;;;;;6.55;1.08;;;;;;;21.71;45.04;101483.59;5012161;28;20038;-45
2023/08/08 10:03:11;;;;;;;3.08;1.00;;;;;;;22.00;45.21;101495.38;5010929;28;20119;-48
2023/08/08 10:05:38;;;;;;;3.15;1.02;;;;;;;22.22;45.34;101488.63;5019003;28;20520;-46
2023/08/08 10:08:04;;;;;;;3.45;1.13;;;;;;;22.87;44.57;101481.59;5031977;28;20090;-49
2023/08/08 10:10:30;;;;;;;3.05;0.90;;;;;;;23.13;43.20;101474.69;5011341;28;20045;-48
2023/08/08 10:12:56;;;;;;;2.03;1.10;;;;;;;23.23;42.47;101484.16;5010946;28;20038;-45
2023/08/08 10:15:26;;;;;;;3.33;0.80;;;;;;;22.94;41.83;101475.19;5010462;28;20026;-47
2023/08/08 10:17:57;;;;;;;4.40;1.00;;;;;;;23.10;43.74;101477.44;5012000;28;20041;-47
2023/08/08 10:20:24;;;;;;;2.00;0.80;;;;;;;22.53;45.42;101476.31;5024563;28;20044;-44
2023/08/08 10:22:52;;;;;;;2.67;0.90;;;;;;;22.38;47.18;101481.16;5031239;28;20064;-50
2023/08/08 10:25:30;;;;;;;6.80;0.98;;;;;;;22.56;46.37;101480.69;5031285;28;20033;-47
2023/08/08 10:28:08;;;;;;;2.33;0.90;;;;;;;22.46;46.04;101484.47;5031504;28;20456;-45
2023/08/08 10:30:49;;;;;;;2.80;0.90;;;;;;;22.43;44.61;101482.78;5030549;28;20808;-45
2023/08/08 10:33:19;;;;;;;2.58;1.10;;;;;;;22.88;45.88;101478.03;5026334;28;20045;-49
2023/08/08 10:35:55;;;;;;;4.57;1.27;;;;;;;22.92;45.57;101494.78;5014056;28;20046;-45
2023/08/08 10:38:22;;;;;;;2.47;1.10;;;;;;;23.14;46.42;101481.75;5015742;28;20037;-40
2023/08/08 10:40:47;;;;;;;4.47;1.15;;;;;;;23.05;47.11;101482.91;5024624;28;20050;-44
2023/08/08 10:43:13;;;;;;;2.92;0.90;;;;;;;22.85;45.45;101477.25;5022659;28;20056;-48
2023/08/08 10:45:42;;;;;;;2.80;0.93;;;;;;;23.63;43.23;101489.19;5017303;28;20034;-44
2023/08/08 10:48:09;;;;;;;2.38;1.25;;;;;;;23.23;45.00;101479.72;5011382;28;20064;-44
2023/08/08 10:50:39;;;;;;;2.25;1.05;;;;;;;23.35;44.07;101474.03;5008999;28;20081;-46
2023/08/08 10:53:12;;;;;;;2.30;0.80;;;;;;;23.23;44.08;101481.50;5010756;28;20041;-45
2023/08/08 10:55:37;;;;;;;3.03;0.80;;;;;;;22.54;47.04;101494.00;5026738;28;20029;-44
2023/08/08 10:58:12;;;;;;;4.05;0.90;;;;;;;22.78;46.70;101484.53;5030932;28;20041;-50
2023/08/08 11:00:39;;;;;;;4.78;1.00;;;;;;;22.84;45.38;101479.03;5030543;28;20033;-48
2023/08/08 11:03:05;;;;;;;6.05;1.00;;;;;;;22.46;46.53;101482.69;5030380;28;20041;-46
2023/08/08 11:05:33;;;;;;;4.53;0.88;;;;;;;22.74;47.27;101488.19;5019014;28;20042;-46
2023/08/08 11:08:00;;;;;;;2.40;0.98;;;;;;;22.51;46.94;101478.13;5011052;28;20057;-48
2023/08/08 11:10:30;;;;;;;2.30;0.90;;;;;;;22.81;45.64;101476.44;5010588;28;20046;-49
2023/08/08 11:13:01;;;;;;;2.13;1.10;;;;;;;23.00;46.81;101490.09;5009412;28;20130;-45
2023/08/08 11:15:27;;;;;;;5.07;1.15;;;;;;;22.75;45.64;101497.88;5015786;28;20065;-45
2023/08/08 11:17:53;;;;;;;3.20;1.10;;;;;;;23.41;45.54;101478.28;5030579;28;20041;-45
2023/08/08 11:20:18;;;;;;;3.67;1.05;;;;;;;23.41;45.56;101478.28;5029534;28;20512;-49